sensor_id;sensor_type;location;lat;lon;timestamp;P1;durP1;ratioP1;P2;durP2;ratioP2
12956;SDS011;6543;48.836;10.092;2022-11-11T00:01:43;15.97;;;8.47;;
12956;SDS011;6543;48.836;10.092;2022-11-11T00:04:10;18.80;;;8.67;;
12956;SDS011;6543;48.836;10.092;2022-11-11T00:06:38;13.43;;;8.30;;
12956;SDS011;6543;48.836;10.092;2022-11-11T00:09:05;17.10;;;8.30;;
12956;SDS011;6543;48.836;10.092;2022-11-11T00:11:32;21.27;;;8.53;;
12956;SDS011;6543;48.836;10.092;2022-11-11T00:13:59;20.03;;;8.43;;
12956;SDS011;6543;48.836;10.092;2022-11-11T00:16:25;13.17;;;7.83;;
12956;SDS011;6543;48.836;10.092;2022-11-11T00:19:12;14.43;;;8.67;;
12956;SDS011;6543;48.836;10.092;2022-11-11T00:21:58;14.43;;;8.30;;
12956;SDS011;6543;48.836;10.092;2022-11-11T00:24:42;16.37;;;8.67;;
12956;SDS011;6543;48.836;10.092;2022-11-11T00:27:26;15.57;;;8.93;;
12956;SDS011;6543;48.836;10.092;2022-11-11T00:29:53;18.70;;;9.10;;
12956;SDS011;6543;48.836;10.092;2022-11-11T00:32:20;14.27;;;9.27;;
12956;SDS011;6543;48.836;10.092;2022-11-11T00:34:52;13.17;;;8.00;;
12956;SDS011;6543;48.836;10.092;2022-11-11T00:37:39;15.43;;;8.57;;
12956;SDS011;6543;48.836;10.092;2022-11-11T00:40:07;13.40;;;8.53;;
12956;SDS011;6543;48.836;10.092;2022-11-11T00:42:35;12.17;;;7.70;;
12956;SDS011;6543;48.836;10.092;2022-11-11T00:45:03;13.70;;;7.23;;
12956;SDS011;6543;48.836;10.092;2022-11-11T00:47:31;13.83;;;9.13;;
12956;SDS011;6543;48.836;10.092;2022-11-11T00:50:16;17.60;;;8.00;;
12956;SDS011;6543;48.836;10.092;2022-11-11T00:53:04;14.00;;;8.63;;
12956;SDS011;6543;48.836;10.092;2022-11-11T00:55:34;16.00;;;8.83;;
12956;SDS011;6543;48.836;10.092;2022-11-11T00:58:01;18.03;;;8.97;;
12956;SDS011;6543;48.836;10.092;2022-11-11T01:00:28;14.90;;;8.90;;
12956;SDS011;6543;48.836;10.092;2022-11-11T01:02:55;13.57;;;8.27;;
12956;SDS011;6543;48.836;10.092;2022-11-11T01:05:22;12.97;;;7.17;;
12956;SDS011;6543;48.836;10.092;2022-11-11T01:07:50;13.77;;;8.23;;
12956;SDS011;6543;48.836;10.092;2022-11-11T01:10:21;14.13;;;8.53;;
12956;SDS011;6543;48.836;10.092;2022-11-11T01:13:11;14.97;;;8.60;;
12956;SDS011;6543;48.836;10.092;2022-11-11T01:15:41;15.70;;;7.57;;
12956;SDS011;6543;48.836;10.092;2022-11-11T01:18:09;11.10;;;7.13;;
12956;SDS011;6543;48.836;10.092;2022-11-11T01:20:37;12.37;;;7.90;;
12956;SDS011;6543;48.836;10.092;2022-11-11T01:23:05;16.33;;;8.30;;
12956;SDS011;6543;48.836;10.092;2022-11-11T01:25:35;12.03;;;6.93;;
12956;SDS011;6543;48.836;10.092;2022-11-11T01:28:03;13.37;;;7.93;;
12956;SDS011;6543;48.836;10.092;2022-11-11T01:30:31;11.03;;;7.50;;
12956;SDS011;6543;48.836;10.092;2022-11-11T01:32:59;12.33;;;8.57;;
12956;SDS011;6543;48.836;10.092;2022-11-11T01:35:27;12.83;;;7.63;;
12956;SDS011;6543;48.836;10.092;2022-11-11T01:37:55;11.53;;;7.03;;
12956;SDS011;6543;48.836;10.092;2022-11-11T01:40:22;15.07;;;7.23;;
12956;SDS011;6543;48.836;10.092;2022-11-11T01:42:51;11.17;;;7.00;;
12956;SDS011;6543;48.836;10.092;2022-11-11T01:48:21;17.77;;;7.37;;
12956;SDS011;6543;48.836;10.092;2022-11-11T01:51:11;11.33;;;6.57;;
12956;SDS011;6543;48.836;10.092;2022-11-11T01:53:44;16.03;;;7.60;;
12956;SDS011;6543;48.836;10.092;2022-11-11T01:56:14;16.67;;;7.10;;
12956;SDS011;6543;48.836;10.092;2022-11-11T01:58:43;15.73;;;7.03;;
12956;SDS011;6543;48.836;10.092;2022-11-11T02:01:10;16.77;;;7.93;;
12956;SDS011;6543;48.836;10.092;2022-11-11T02:03:38;15.43;;;7.10;;
12956;SDS011;6543;48.836;10.092;2022-11-11T02:06:26;10.57;;;7.37;;
12956;SDS011;6543;48.836;10.092;2022-11-11T02:08:53;11.93;;;7.40;;
12956;SDS011;6543;48.836;10.092;2022-11-11T02:11:20;17.57;;;7.27;;
12956;SDS011;6543;48.836;10.092;2022-11-11T02:14:04;12.07;;;7.40;;
12956;SDS011;6543;48.836;10.092;2022-11-11T02:16:48;11.03;;;6.90;;
12956;SDS011;6543;48.836;10.092;2022-11-11T02:19:16;13.00;;;7.17;;
12956;SDS011;6543;48.836;10.092;2022-11-11T02:21:46;14.23;;;7.70;;
12956;SDS011;6543;48.836;10.092;2022-11-11T02:24:21;9.90;;;7.10;;
12956;SDS011;6543;48.836;10.092;2022-11-11T02:26:49;16.13;;;7.13;;
12956;SDS011;6543;48.836;10.092;2022-11-11T02:29:18;10.90;;;7.27;;
12956;SDS011;6543;48.836;10.092;2022-11-11T02:31:46;18.53;;;8.10;;
12956;SDS011;6543;48.836;10.092;2022-11-11T02:34:13;14.63;;;8.10;;
12956;SDS011;6543;48.836;10.092;2022-11-11T02:36:40;12.60;;;6.93;;
12956;SDS011;6543;48.836;10.092;2022-11-11T02:39:08;14.40;;;8.10;;
12956;SDS011;6543;48.836;10.092;2022-11-11T02:41:37;13.60;;;7.77;;
12956;SDS011;6543;48.836;10.092;2022-11-11T02:44:22;16.50;;;7.40;;
12956;SDS011;6543;48.836;10.092;2022-11-11T02:46:49;16.23;;;7.33;;
12956;SDS011;6543;48.836;10.092;2022-11-11T02:49:16;21.63;;;8.00;;
12956;SDS011;6543;48.836;10.092;2022-11-11T02:51:43;19.07;;;8.23;;
12956;SDS011;6543;48.836;10.092;2022-11-11T02:54:11;16.70;;;8.03;;
12956;SDS011;6543;48.836;10.092;2022-11-11T02:56:39;14.77;;;7.27;;
12956;SDS011;6543;48.836;10.092;2022-11-11T02:59:23;14.43;;;7.63;;
12956;SDS011;6543;48.836;10.092;2022-11-11T03:01:50;19.53;;;8.40;;
12956;SDS011;6543;48.836;10.092;2022-11-11T03:04:17;15.83;;;7.67;;
12956;SDS011;6543;48.836;10.092;2022-11-11T03:06:44;12.90;;;6.70;;
12956;SDS011;6543;48.836;10.092;2022-11-11T03:09:10;14.70;;;7.53;;
12956;SDS011;6543;48.836;10.092;2022-11-11T03:11:37;17.33;;;7.50;;
12956;SDS011;6543;48.836;10.092;2022-11-11T03:14:05;11.90;;;7.67;;
12956;SDS011;6543;48.836;10.092;2022-11-11T03:16:33;12.80;;;7.43;;
12956;SDS011;6543;48.836;10.092;2022-11-11T03:19:17;14.93;;;7.77;;
12956;SDS011;6543;48.836;10.092;2022-11-11T03:21:44;11.93;;;8.30;;
12956;SDS011;6543;48.836;10.092;2022-11-11T03:24:10;15.27;;;7.80;;
12956;SDS011;6543;48.836;10.092;2022-11-11T03:26:37;16.73;;;8.23;;
12956;SDS011;6543;48.836;10.092;2022-11-11T03:29:04;15.50;;;7.37;;
12956;SDS011;6543;48.836;10.092;2022-11-11T03:31:31;14.00;;;7.63;;
12956;SDS011;6543;48.836;10.092;2022-11-11T03:33:58;12.30;;;7.30;;
12956;SDS011;6543;48.836;10.092;2022-11-11T03:36:42;9.87;;;6.67;;
12956;SDS011;6543;48.836;10.092;2022-11-11T03:39:27;11.77;;;6.80;;
12956;SDS011;6543;48.836;10.092;2022-11-11T03:41:54;12.50;;;7.50;;
12956;SDS011;6543;48.836;10.092;2022-11-11T03:44:22;10.50;;;7.60;;
12956;SDS011;6543;48.836;10.092;2022-11-11T03:46:49;17.27;;;7.47;;
12956;SDS011;6543;48.836;10.092;2022-11-11T03:49:16;19.80;;;8.90;;
12956;SDS011;6543;48.836;10.092;2022-11-11T03:51:42;11.40;;;8.70;;
12956;SDS011;6543;48.836;10.092;2022-11-11T03:54:09;11.63;;;8.00;;
12956;SDS011;6543;48.836;10.092;2022-11-11T03:56:36;19.33;;;9.20;;
12956;SDS011;6543;48.836;10.092;2022-11-11T03:59:03;18.73;;;9.30;;
12956;SDS011;6543;48.836;10.092;2022-11-11T04:01:31;16.97;;;9.73;;
12956;SDS011;6543;48.836;10.092;2022-11-11T04:04:15;16.13;;;9.00;;
12956;SDS011;6543;48.836;10.092;2022-11-11T04:06:59;16.43;;;8.43;;
12956;SDS011;6543;48.836;10.092;2022-11-11T04:09:46;16.03;;;8.00;;
12956;SDS011;6543;48.836;10.092;2022-11-11T04:12:30;15.37;;;7.83;;
12956;SDS011;6543;48.836;10.092;2022-11-11T04:15:21;12.77;;;7.93;;
12956;SDS011;6543;48.836;10.092;2022-11-11T04:18:06;15.97;;;6.87;;
12956;SDS011;6543;48.836;10.092;2022-11-11T04:20:33;12.17;;;8.10;;
12956;SDS011;6543;48.836;10.092;2022-11-11T04:23:17;14.27;;;7.70;;
12956;SDS011;6543;48.836;10.092;2022-11-11T04:25:44;19.47;;;8.70;;
12956;SDS011;6543;48.836;10.092;2022-11-11T04:28:12;15.47;;;8.47;;
12956;SDS011;6543;48.836;10.092;2022-11-11T04:30:57;14.80;;;9.00;;
12956;SDS011;6543;48.836;10.092;2022-11-11T04:33:26;15.57;;;9.50;;
12956;SDS011;6543;48.836;10.092;2022-11-11T04:35:52;20.93;;;8.80;;
12956;SDS011;6543;48.836;10.092;2022-11-11T04:38:19;12.40;;;7.30;;
12956;SDS011;6543;48.836;10.092;2022-11-11T04:41:04;11.60;;;7.17;;
12956;SDS011;6543;48.836;10.092;2022-11-11T04:43:33;16.97;;;7.20;;
12956;SDS011;6543;48.836;10.092;2022-11-11T04:46:21;10.50;;;6.73;;
12956;SDS011;6543;48.836;10.092;2022-11-11T04:48:48;10.80;;;6.90;;
12956;SDS011;6543;48.836;10.092;2022-11-11T04:51:15;11.37;;;6.87;;
12956;SDS011;6543;48.836;10.092;2022-11-11T04:53:41;15.43;;;6.47;;
12956;SDS011;6543;48.836;10.092;2022-11-11T04:56:08;10.73;;;6.17;;
12956;SDS011;6543;48.836;10.092;2022-11-11T04:58:53;10.87;;;6.33;;
12956;SDS011;6543;48.836;10.092;2022-11-11T05:01:33;10.20;;;6.63;;
12956;SDS011;6543;48.836;10.092;2022-11-11T05:04:19;14.03;;;6.03;;
12956;SDS011;6543;48.836;10.092;2022-11-11T05:06:46;16.63;;;6.93;;
12956;SDS011;6543;48.836;10.092;2022-11-11T05:09:30;11.07;;;7.27;;
12956;SDS011;6543;48.836;10.092;2022-11-11T05:11:56;11.63;;;6.77;;
12956;SDS011;6543;48.836;10.092;2022-11-11T05:14:23;13.60;;;6.93;;
12956;SDS011;6543;48.836;10.092;2022-11-11T05:17:07;11.87;;;7.27;;
12956;SDS011;6543;48.836;10.092;2022-11-11T05:19:53;9.10;;;6.60;;
12956;SDS011;6543;48.836;10.092;2022-11-11T05:22:38;13.50;;;6.53;;
12956;SDS011;6543;48.836;10.092;2022-11-11T05:25:06;8.50;;;6.60;;
12956;SDS011;6543;48.836;10.092;2022-11-11T05:27:51;10.80;;;6.87;;
12956;SDS011;6543;48.836;10.092;2022-11-11T05:30:19;8.40;;;7.07;;
12956;SDS011;6543;48.836;10.092;2022-11-11T05:32:46;10.80;;;6.97;;
12956;SDS011;6543;48.836;10.092;2022-11-11T05:35:15;15.23;;;6.90;;
12956;SDS011;6543;48.836;10.092;2022-11-11T05:37:43;10.63;;;6.53;;
12956;SDS011;6543;48.836;10.092;2022-11-11T05:40:30;8.83;;;6.27;;
12956;SDS011;6543;48.836;10.092;2022-11-11T05:42:57;12.67;;;7.07;;
12956;SDS011;6543;48.836;10.092;2022-11-11T05:45:24;13.03;;;7.23;;
12956;SDS011;6543;48.836;10.092;2022-11-11T05:47:51;12.73;;;7.37;;
12956;SDS011;6543;48.836;10.092;2022-11-11T05:50:19;14.43;;;7.47;;
12956;SDS011;6543;48.836;10.092;2022-11-11T05:52:46;16.40;;;8.30;;
12956;SDS011;6543;48.836;10.092;2022-11-11T05:55:14;18.97;;;8.53;;
12956;SDS011;6543;48.836;10.092;2022-11-11T06:00:27;14.80;;;8.43;;
12956;SDS011;6543;48.836;10.092;2022-11-11T06:02:53;13.93;;;8.83;;
12956;SDS011;6543;48.836;10.092;2022-11-11T06:05:28;13.93;;;7.30;;
12956;SDS011;6543;48.836;10.092;2022-11-11T06:07:54;13.30;;;7.50;;
12956;SDS011;6543;48.836;10.092;2022-11-11T06:10:21;10.33;;;7.10;;
12956;SDS011;6543;48.836;10.092;2022-11-11T06:12:57;10.47;;;7.20;;
12956;SDS011;6543;48.836;10.092;2022-11-11T06:15:29;11.47;;;8.23;;
12956;SDS011;6543;48.836;10.092;2022-11-11T06:17:57;12.47;;;7.80;;
12956;SDS011;6543;48.836;10.092;2022-11-11T06:20:24;10.97;;;7.60;;
12956;SDS011;6543;48.836;10.092;2022-11-11T06:22:52;12.10;;;7.90;;
12956;SDS011;6543;48.836;10.092;2022-11-11T06:25:22;17.87;;;9.60;;
12956;SDS011;6543;48.836;10.092;2022-11-11T06:28:07;16.63;;;8.70;;
12956;SDS011;6543;48.836;10.092;2022-11-11T06:30:34;14.50;;;8.50;;
12956;SDS011;6543;48.836;10.092;2022-11-11T06:33:02;14.40;;;9.47;;
12956;SDS011;6543;48.836;10.092;2022-11-11T06:35:28;16.07;;;9.40;;
12956;SDS011;6543;48.836;10.092;2022-11-11T06:37:57;16.77;;;10.00;;
12956;SDS011;6543;48.836;10.092;2022-11-11T06:40:24;15.20;;;8.80;;
12956;SDS011;6543;48.836;10.092;2022-11-11T06:42:50;15.80;;;8.90;;
12956;SDS011;6543;48.836;10.092;2022-11-11T06:45:17;14.67;;;8.77;;
12956;SDS011;6543;48.836;10.092;2022-11-11T06:47:44;13.17;;;8.27;;
12956;SDS011;6543;48.836;10.092;2022-11-11T06:50:11;13.27;;;8.20;;
12956;SDS011;6543;48.836;10.092;2022-11-11T06:52:38;15.73;;;8.50;;
12956;SDS011;6543;48.836;10.092;2022-11-11T06:55:06;16.83;;;8.17;;
12956;SDS011;6543;48.836;10.092;2022-11-11T06:57:33;11.13;;;8.10;;
12956;SDS011;6543;48.836;10.092;2022-11-11T07:00:00;12.20;;;7.80;;
12956;SDS011;6543;48.836;10.092;2022-11-11T07:02:27;15.43;;;8.17;;
12956;SDS011;6543;48.836;10.092;2022-11-11T07:04:54;13.23;;;8.30;;
12956;SDS011;6543;48.836;10.092;2022-11-11T07:07:21;13.63;;;8.57;;
12956;SDS011;6543;48.836;10.092;2022-11-11T07:09:48;14.87;;;8.40;;
12956;SDS011;6543;48.836;10.092;2022-11-11T07:12:16;22.57;;;8.87;;
12956;SDS011;6543;48.836;10.092;2022-11-11T07:14:43;12.03;;;7.97;;
12956;SDS011;6543;48.836;10.092;2022-11-11T07:17:10;18.27;;;8.30;;
12956;SDS011;6543;48.836;10.092;2022-11-11T07:19:37;16.53;;;8.37;;
12956;SDS011;6543;48.836;10.092;2022-11-11T07:22:04;15.17;;;7.77;;
12956;SDS011;6543;48.836;10.092;2022-11-11T07:24:30;16.37;;;8.77;;
12956;SDS011;6543;48.836;10.092;2022-11-11T07:26:57;18.93;;;9.50;;
12956;SDS011;6543;48.836;10.092;2022-11-11T07:29:27;12.80;;;7.33;;
12956;SDS011;6543;48.836;10.092;2022-11-11T07:31:54;19.67;;;9.87;;
12956;SDS011;6543;48.836;10.092;2022-11-11T07:34:21;19.37;;;10.37;;
12956;SDS011;6543;48.836;10.092;2022-11-11T07:36:48;14.37;;;10.00;;
12956;SDS011;6543;48.836;10.092;2022-11-11T07:39:14;24.60;;;12.83;;
12956;SDS011;6543;48.836;10.092;2022-11-11T07:41:41;16.43;;;9.33;;
12956;SDS011;6543;48.836;10.092;2022-11-11T07:44:08;16.27;;;9.63;;
12956;SDS011;6543;48.836;10.092;2022-11-11T07:46:36;15.97;;;8.30;;
12956;SDS011;6543;48.836;10.092;2022-11-11T07:49:03;10.60;;;7.03;;
12956;SDS011;6543;48.836;10.092;2022-11-11T07:51:30;9.63;;;6.43;;
12956;SDS011;6543;48.836;10.092;2022-11-11T07:53:57;11.67;;;7.13;;
12956;SDS011;6543;48.836;10.092;2022-11-11T07:56:24;11.83;;;6.70;;
12956;SDS011;6543;48.836;10.092;2022-11-11T07:58:51;15.07;;;7.23;;
12956;SDS011;6543;48.836;10.092;2022-11-11T08:01:18;14.07;;;7.30;;
12956;SDS011;6543;48.836;10.092;2022-11-11T08:03:46;14.87;;;6.83;;
12956;SDS011;6543;48.836;10.092;2022-11-11T08:06:16;13.77;;;7.63;;
12956;SDS011;6543;48.836;10.092;2022-11-11T08:08:43;16.60;;;7.07;;
12956;SDS011;6543;48.836;10.092;2022-11-11T08:11:10;18.30;;;7.03;;
12956;SDS011;6543;48.836;10.092;2022-11-11T08:13:37;9.20;;;6.17;;
12956;SDS011;6543;48.836;10.092;2022-11-11T08:16:07;12.07;;;6.83;;
12956;SDS011;6543;48.836;10.092;2022-11-11T08:18:36;16.47;;;7.47;;
12956;SDS011;6543;48.836;10.092;2022-11-11T08:21:04;10.40;;;7.07;;
12956;SDS011;6543;48.836;10.092;2022-11-11T08:23:32;11.60;;;7.57;;
12956;SDS011;6543;48.836;10.092;2022-11-11T08:25:59;21.63;;;9.27;;
12956;SDS011;6543;48.836;10.092;2022-11-11T08:28:27;16.47;;;9.13;;
12956;SDS011;6543;48.836;10.092;2022-11-11T08:30:57;23.30;;;8.63;;
12956;SDS011;6543;48.836;10.092;2022-11-11T08:33:24;18.27;;;9.97;;
12956;SDS011;6543;48.836;10.092;2022-11-11T08:35:51;22.23;;;10.17;;
12956;SDS011;6543;48.836;10.092;2022-11-11T08:38:20;18.93;;;9.73;;
12956;SDS011;6543;48.836;10.092;2022-11-11T08:40:47;22.00;;;10.17;;
12956;SDS011;6543;48.836;10.092;2022-11-11T08:43:14;24.43;;;10.87;;
12956;SDS011;6543;48.836;10.092;2022-11-11T08:45:41;14.20;;;8.63;;
12956;SDS011;6543;48.836;10.092;2022-11-11T08:48:08;12.67;;;7.90;;
12956;SDS011;6543;48.836;10.092;2022-11-11T08:50:35;14.03;;;8.23;;
12956;SDS011;6543;48.836;10.092;2022-11-11T08:53:02;15.87;;;7.77;;
12956;SDS011;6543;48.836;10.092;2022-11-11T08:55:32;17.80;;;7.70;;
12956;SDS011;6543;48.836;10.092;2022-11-11T08:57:59;10.17;;;7.00;;
12956;SDS011;6543;48.836;10.092;2022-11-11T09:00:29;14.53;;;8.07;;
12956;SDS011;6543;48.836;10.092;2022-11-11T09:02:59;14.13;;;6.93;;
12956;SDS011;6543;48.836;10.092;2022-11-11T09:05:26;14.33;;;7.03;;
12956;SDS011;6543;48.836;10.092;2022-11-11T09:07:54;18.73;;;6.43;;
12956;SDS011;6543;48.836;10.092;2022-11-11T09:10:21;10.90;;;6.03;;
12956;SDS011;6543;48.836;10.092;2022-11-11T09:12:54;13.33;;;6.47;;
12956;SDS011;6543;48.836;10.092;2022-11-11T09:15:21;11.97;;;6.00;;
12956;SDS011;6543;48.836;10.092;2022-11-11T09:17:48;11.23;;;5.40;;
12956;SDS011;6543;48.836;10.092;2022-11-11T09:20:15;18.40;;;6.43;;
12956;SDS011;6543;48.836;10.092;2022-11-11T09:22:43;15.83;;;6.80;;
12956;SDS011;6543;48.836;10.092;2022-11-11T09:25:10;22.17;;;6.73;;
12956;SDS011;6543;48.836;10.092;2022-11-11T09:27:37;13.57;;;6.67;;
12956;SDS011;6543;48.836;10.092;2022-11-11T09:30:06;20.27;;;5.87;;
12956;SDS011;6543;48.836;10.092;2022-11-11T09:32:35;14.03;;;6.00;;
12956;SDS011;6543;48.836;10.092;2022-11-11T09:35:02;16.93;;;6.50;;
12956;SDS011;6543;48.836;10.092;2022-11-11T09:37:29;15.57;;;6.17;;
12956;SDS011;6543;48.836;10.092;2022-11-11T09:39:56;12.60;;;5.90;;
12956;SDS011;6543;48.836;10.092;2022-11-11T09:42:28;13.40;;;6.50;;
12956;SDS011;6543;48.836;10.092;2022-11-11T09:45:08;18.43;;;6.80;;
12956;SDS011;6543;48.836;10.092;2022-11-11T09:47:45;13.87;;;7.17;;
12956;SDS011;6543;48.836;10.092;2022-11-11T09:50:21;11.50;;;6.13;;
12956;SDS011;6543;48.836;10.092;2022-11-11T09:52:51;11.37;;;5.47;;
12956;SDS011;6543;48.836;10.092;2022-11-11T09:55:26;15.40;;;5.70;;
12956;SDS011;6543;48.836;10.092;2022-11-11T09:57:57;13.57;;;6.10;;
12956;SDS011;6543;48.836;10.092;2022-11-11T10:00:28;10.33;;;4.93;;
12956;SDS011;6543;48.836;10.092;2022-11-11T10:03:00;13.20;;;5.77;;
12956;SDS011;6543;48.836;10.092;2022-11-11T10:05:36;20.50;;;6.43;;
12956;SDS011;6543;48.836;10.092;2022-11-11T10:08:10;17.83;;;5.97;;
12956;SDS011;6543;48.836;10.092;2022-11-11T10:10:41;18.67;;;6.70;;
12956;SDS011;6543;48.836;10.092;2022-11-11T10:13:11;11.60;;;5.73;;
12956;SDS011;6543;48.836;10.092;2022-11-11T10:15:43;21.00;;;6.53;;
12956;SDS011;6543;48.836;10.092;2022-11-11T10:18:19;8.40;;;5.77;;
12956;SDS011;6543;48.836;10.092;2022-11-11T10:21:12;12.20;;;4.40;;
12956;SDS011;6543;48.836;10.092;2022-11-11T10:23:42;6.30;;;4.17;;
12956;SDS011;6543;48.836;10.092;2022-11-11T10:26:15;12.97;;;5.50;;
12956;SDS011;6543;48.836;10.092;2022-11-11T10:28:45;8.70;;;4.67;;
12956;SDS011;6543;48.836;10.092;2022-11-11T10:31:17;6.90;;;4.30;;
12956;SDS011;6543;48.836;10.092;2022-11-11T10:33:49;6.47;;;4.30;;
12956;SDS011;6543;48.836;10.092;2022-11-11T10:36:19;4.97;;;3.60;;
12956;SDS011;6543;48.836;10.092;2022-11-11T10:38:49;7.17;;;3.73;;
12956;SDS011;6543;48.836;10.092;2022-11-11T10:41:20;5.03;;;2.30;;
12956;SDS011;6543;48.836;10.092;2022-11-11T10:43:52;4.70;;;2.77;;
12956;SDS011;6543;48.836;10.092;2022-11-11T10:46:21;8.53;;;3.53;;
12956;SDS011;6543;48.836;10.092;2022-11-11T10:48:52;11.17;;;4.40;;
12956;SDS011;6543;48.836;10.092;2022-11-11T10:51:23;7.63;;;4.60;;
12956;SDS011;6543;48.836;10.092;2022-11-11T10:53:56;7.83;;;4.17;;
12956;SDS011;6543;48.836;10.092;2022-11-11T10:56:28;7.77;;;4.43;;
12956;SDS011;6543;48.836;10.092;2022-11-11T10:59:04;6.40;;;3.57;;
12956;SDS011;6543;48.836;10.092;2022-11-11T11:01:42;4.67;;;2.40;;
12956;SDS011;6543;48.836;10.092;2022-11-11T11:04:14;3.93;;;1.70;;
12956;SDS011;6543;48.836;10.092;2022-11-11T11:06:46;6.50;;;2.77;;
12956;SDS011;6543;48.836;10.092;2022-11-11T11:09:16;10.23;;;3.57;;
12956;SDS011;6543;48.836;10.092;2022-11-11T11:11:49;8.97;;;4.90;;
12956;SDS011;6543;48.836;10.092;2022-11-11T11:14:19;5.53;;;2.60;;
12956;SDS011;6543;48.836;10.092;2022-11-11T11:16:53;6.67;;;2.47;;
12956;SDS011;6543;48.836;10.092;2022-11-11T11:19:24;5.83;;;2.87;;
12956;SDS011;6543;48.836;10.092;2022-11-11T11:21:52;9.23;;;3.80;;
12956;SDS011;6543;48.836;10.092;2022-11-11T11:24:21;5.80;;;2.90;;
12956;SDS011;6543;48.836;10.092;2022-11-11T11:26:51;8.03;;;3.63;;
12956;SDS011;6543;48.836;10.092;2022-11-11T11:29:23;4.33;;;2.27;;
12956;SDS011;6543;48.836;10.092;2022-11-11T11:31:53;5.93;;;2.20;;
12956;SDS011;6543;48.836;10.092;2022-11-11T11:34:20;6.87;;;2.03;;
12956;SDS011;6543;48.836;10.092;2022-11-11T11:36:59;5.50;;;3.67;;
12956;SDS011;6543;48.836;10.092;2022-11-11T11:39:33;4.10;;;2.20;;
12956;SDS011;6543;48.836;10.092;2022-11-11T11:42:01;6.07;;;1.93;;
12956;SDS011;6543;48.836;10.092;2022-11-11T11:44:28;2.07;;;1.47;;
12956;SDS011;6543;48.836;10.092;2022-11-11T11:46:59;1.80;;;1.27;;
12956;SDS011;6543;48.836;10.092;2022-11-11T11:49:39;2.60;;;1.90;;
12956;SDS011;6543;48.836;10.092;2022-11-11T11:52:19;2.90;;;1.50;;
12956;SDS011;6543;48.836;10.092;2022-11-11T11:54:52;3.43;;;2.20;;
12956;SDS011;6543;48.836;10.092;2022-11-11T11:57:28;3.37;;;2.37;;
12956;SDS011;6543;48.836;10.092;2022-11-11T12:00:12;2.37;;;1.93;;
12956;SDS011;6543;48.836;10.092;2022-11-11T12:05:51;4.10;;;1.83;;
12956;SDS011;6543;48.836;10.092;2022-11-11T12:08:38;3.25;;;1.73;;
12956;SDS011;6543;48.836;10.092;2022-11-11T12:11:17;2.50;;;1.47;;
12956;SDS011;6543;48.836;10.092;2022-11-11T12:13:54;5.17;;;1.87;;
12956;SDS011;6543;48.836;10.092;2022-11-11T12:16:32;3.67;;;1.43;;
12956;SDS011;6543;48.836;10.092;2022-11-11T12:19:10;1.77;;;1.50;;
12956;SDS011;6543;48.836;10.092;2022-11-11T12:21:54;2.23;;;1.77;;
12956;SDS011;6543;48.836;10.092;2022-11-11T12:24:30;3.57;;;2.03;;
12956;SDS011;6543;48.836;10.092;2022-11-11T12:27:10;3.27;;;1.80;;
12956;SDS011;6543;48.836;10.092;2022-11-11T12:29:51;5.57;;;1.70;;
12956;SDS011;6543;48.836;10.092;2022-11-11T12:32:37;2.88;;;1.27;;
12956;SDS011;6543;48.836;10.092;2022-11-11T12:35:24;8.27;;;2.97;;
12956;SDS011;6543;48.836;10.092;2022-11-11T12:38:13;4.25;;;1.88;;
12956;SDS011;6543;48.836;10.092;2022-11-11T12:40:54;4.87;;;2.73;;
12956;SDS011;6543;48.836;10.092;2022-11-11T12:43:33;6.83;;;2.30;;
12956;SDS011;6543;48.836;10.092;2022-11-11T12:46:09;2.33;;;1.60;;
12956;SDS011;6543;48.836;10.092;2022-11-11T12:48:47;4.23;;;1.80;;
12956;SDS011;6543;48.836;10.092;2022-11-11T12:51:28;2.90;;;1.97;;
12956;SDS011;6543;48.836;10.092;2022-11-11T12:54:09;5.63;;;2.60;;
12956;SDS011;6543;48.836;10.092;2022-11-11T12:56:46;4.60;;;2.33;;
12956;SDS011;6543;48.836;10.092;2022-11-11T12:59:23;2.90;;;2.30;;
12956;SDS011;6543;48.836;10.092;2022-11-11T13:02:00;4.80;;;2.90;;
12956;SDS011;6543;48.836;10.092;2022-11-11T13:04:45;8.00;;;2.40;;
12956;SDS011;6543;48.836;10.092;2022-11-11T13:10:24;3.47;;;2.33;;
12956;SDS011;6543;48.836;10.092;2022-11-11T13:13:00;4.27;;;2.30;;
12956;SDS011;6543;48.836;10.092;2022-11-11T13:15:37;4.93;;;2.90;;
12956;SDS011;6543;48.836;10.092;2022-11-11T13:18:07;3.57;;;2.10;;
12956;SDS011;6543;48.836;10.092;2022-11-11T13:20:42;4.75;;;2.33;;
12956;SDS011;6543;48.836;10.092;2022-11-11T13:23:16;4.68;;;2.47;;
12956;SDS011;6543;48.836;10.092;2022-11-11T13:25:44;5.33;;;2.03;;
12956;SDS011;6543;48.836;10.092;2022-11-11T13:28:15;3.07;;;1.93;;
12956;SDS011;6543;48.836;10.092;2022-11-11T13:30:55;2.73;;;1.80;;
12956;SDS011;6543;48.836;10.092;2022-11-11T13:33:35;2.63;;;1.90;;
12956;SDS011;6543;48.836;10.092;2022-11-11T13:36:05;2.43;;;1.93;;
12956;SDS011;6543;48.836;10.092;2022-11-11T13:38:36;2.73;;;1.87;;
12956;SDS011;6543;48.836;10.092;2022-11-11T13:41:10;6.30;;;2.50;;
12956;SDS011;6543;48.836;10.092;2022-11-11T13:43:39;5.50;;;2.10;;
12956;SDS011;6543;48.836;10.092;2022-11-11T13:46:14;4.38;;;2.13;;
12956;SDS011;6543;48.836;10.092;2022-11-11T13:48:59;2.80;;;2.20;;
12956;SDS011;6543;48.836;10.092;2022-11-11T13:51:29;2.53;;;2.10;;
12956;SDS011;6543;48.836;10.092;2022-11-11T13:54:03;4.72;;;2.55;;
12956;SDS011;6543;48.836;10.092;2022-11-11T13:56:35;4.43;;;2.13;;
12956;SDS011;6543;48.836;10.092;2022-11-11T13:59:04;3.13;;;2.00;;
12956;SDS011;6543;48.836;10.092;2022-11-11T14:01:32;2.70;;;2.03;;
12956;SDS011;6543;48.836;10.092;2022-11-11T14:04:02;3.03;;;1.80;;
12956;SDS011;6543;48.836;10.092;2022-11-11T14:06:37;3.57;;;1.97;;
12956;SDS011;6543;48.836;10.092;2022-11-11T14:12:23;5.20;;;1.90;;
12956;SDS011;6543;48.836;10.092;2022-11-11T14:15:00;8.07;;;2.40;;
12956;SDS011;6543;48.836;10.092;2022-11-11T14:17:32;9.13;;;2.00;;
12956;SDS011;6543;48.836;10.092;2022-11-11T14:23:14;2.73;;;1.80;;
12956;SDS011;6543;48.836;10.092;2022-11-11T14:25:50;3.47;;;2.07;;
12956;SDS011;6543;48.836;10.092;2022-11-11T14:28:40;7.60;;;1.97;;
12956;SDS011;6543;48.836;10.092;2022-11-11T14:31:34;5.13;;;2.17;;
12956;SDS011;6543;48.836;10.092;2022-11-11T14:34:17;6.60;;;1.83;;
12956;SDS011;6543;48.836;10.092;2022-11-11T14:36:51;6.80;;;1.80;;
12956;SDS011;6543;48.836;10.092;2022-11-11T14:39:31;4.87;;;2.07;;
12956;SDS011;6543;48.836;10.092;2022-11-11T14:42:03;4.70;;;2.10;;
12956;SDS011;6543;48.836;10.092;2022-11-11T14:44:52;11.03;;;2.57;;
12956;SDS011;6543;48.836;10.092;2022-11-11T14:50:06;4.10;;;2.10;;
12956;SDS011;6543;48.836;10.092;2022-11-11T14:53:07;5.77;;;2.00;;
12956;SDS011;6543;48.836;10.092;2022-11-11T14:55:39;8.70;;;2.37;;
12956;SDS011;6543;48.836;10.092;2022-11-11T14:58:07;4.80;;;2.13;;
12956;SDS011;6543;48.836;10.092;2022-11-11T15:00:46;4.43;;;3.30;;
12956;SDS011;6543;48.836;10.092;2022-11-11T15:03:16;7.43;;;4.13;;
12956;SDS011;6543;48.836;10.092;2022-11-11T15:05:52;7.17;;;3.53;;
12956;SDS011;6543;48.836;10.092;2022-11-11T15:08:25;7.87;;;3.60;;
12956;SDS011;6543;48.836;10.092;2022-11-11T15:11:04;8.97;;;3.17;;
12956;SDS011;6543;48.836;10.092;2022-11-11T15:13:44;8.77;;;3.80;;
12956;SDS011;6543;48.836;10.092;2022-11-11T15:16:40;10.90;;;4.07;;
12956;SDS011;6543;48.836;10.092;2022-11-11T15:19:24;9.67;;;4.23;;
12956;SDS011;6543;48.836;10.092;2022-11-11T15:22:23;6.20;;;4.50;;
12956;SDS011;6543;48.836;10.092;2022-11-11T15:25:05;8.13;;;4.63;;
12956;SDS011;6543;48.836;10.092;2022-11-11T15:27:44;6.00;;;4.67;;
12956;SDS011;6543;48.836;10.092;2022-11-11T15:30:20;7.00;;;5.27;;